Terminal Aerodrome Forecast
Issued by NWS Tallahassee, FL

Home | Current Version | Previous Version | Text Only | Print | Product List | Glossary On
Versions: 1 2 3 4 5 6 7 8 9 10 11 12 13
000
FTUS42 KTAE 220500
TAFTLH
TAF
KTLH 220532Z 2206/2306 09005KT 1SM -RA BR OVC002
     FM221400 10007KT 4SM -RA BR OVC005
     FM230000 14005KT 2SM -RA BR OVC002=

USA.gov is the U.S. government's official web portal to all federal, state and local government web resources and services.